Time;durP1;ratioP1;P1;durP2;ratioP2;P2;SDS_P1;SDS_P2;PMS_P1;PMS_P2;Temp;Humidity;BMP_temperature;BMP_pressure;BME280_temperature;BME280_humidity;BME280_pressure;Samples;Min_cycle;Max_cycle;Signal;HPM_P1;HPM_P2
2021/05/21 00:01:49;;;;;;;0.10;0.10;;;7.10;99.90;;;;;;5110876;28;20178;-72
2021/05/21 00:04:15;;;;;;;0.10;0.10;;;7.20;99.90;;;;;;5110912;28;20191;-72
2021/05/21 00:06:42;;;;;;;0.40;0.40;;;7.20;99.90;;;;;;5110937;28;20521;-71
2021/05/21 00:09:08;;;;;;;0.10;0.10;;;7.30;99.90;;;;;;5110816;28;20189;-72
2021/05/21 00:11:34;;;;;;;0.70;0.70;;;7.40;99.90;;;;;;5110657;28;20164;-72
2021/05/21 00:14:00;;;;;;;0.10;0.10;;;7.40;99.90;;;;;;5110626;28;20250;-72
2021/05/21 00:16:26;;;;;;;0.10;0.10;;;7.30;99.90;;;;;;5110761;28;20523;-72
2021/05/21 00:18:51;;;;;;;0.10;0.10;;;7.20;99.90;;;;;;5110536;28;20187;-71
2021/05/21 00:21:18;;;;;;;0.20;0.20;;;7.20;99.90;;;;;;5092472;28;20191;-71
2021/05/21 00:23:44;;;;;;;0.10;0.10;;;7.20;99.90;;;;;;5110559;28;20194;-73
2021/05/21 00:26:11;;;;;;;0.20;0.20;;;7.00;99.90;;;;;;5110545;28;20144;-73
2021/05/21 00:28:37;;;;;;;0.10;0.10;;;6.90;99.90;;;;;;5092297;28;20554;-73
2021/05/21 00:31:03;;;;;;;0.10;0.10;;;6.90;99.90;;;;;;5106726;28;20214;-73
2021/05/21 00:33:29;;;;;;;0.10;0.10;;;7.00;99.90;;;;;;5093074;28;20180;-73
2021/05/21 00:35:54;;;;;;;0.10;0.10;;;7.10;99.90;;;;;;5101858;28;20628;-73
2021/05/21 00:38:20;;;;;;;0.10;0.10;;;7.20;99.90;;;;;;5110243;28;20201;-72
2021/05/21 00:40:46;;;;;;;0.10;0.10;;;7.30;99.90;;;;;;5078151;28;905320;-73
2021/05/21 00:43:16;;;;;;;0.20;0.20;;;7.40;99.90;;;;;;5092994;28;20164;-72
2021/05/21 00:45:42;;;;;;;0.10;0.10;;;7.50;99.90;;;;;;5092955;28;20225;-72
2021/05/21 00:48:09;;;;;;;0.00;0.00;;;7.60;99.90;;;;;;5092917;28;20174;-73
2021/05/21 00:50:34;;;;;;;0.10;0.10;;;7.60;99.90;;;;;;5111374;28;20213;-72
2021/05/21 00:53:04;;;;;;;0.20;0.20;;;7.60;99.90;;;;;;5093063;28;20168;-70
2021/05/21 00:55:31;;;;;;;0.10;0.10;;;7.50;99.90;;;;;;5111011;28;20187;-72
2021/05/21 00:57:57;;;;;;;0.10;0.10;;;7.50;99.90;;;;;;5110955;28;20206;-72
2021/05/21 01:00:23;;;;;;;0.57;0.57;;;7.50;99.90;;;;;;5111012;28;20636;-73
2021/05/21 01:02:49;;;;;;;0.10;0.10;;;7.50;99.90;;;;;;5110994;28;20156;-73
2021/05/21 01:05:15;;;;;;;0.20;0.20;;;7.50;99.90;;;;;;5110803;28;20190;-73
2021/05/21 01:07:40;;;;;;;6.70;0.90;;;7.50;99.90;;;;;;5092639;28;20561;-73
2021/05/21 01:10:07;;;;;;;0.10;0.10;;;7.50;99.90;;;;;;5110078;28;20250;-72
2021/05/21 01:12:33;;;;;;;0.10;0.10;;;7.50;99.90;;;;;;5110816;28;20166;-72
2021/05/21 01:14:59;;;;;;;0.00;0.00;;;7.50;99.90;;;;;;5110680;28;20191;-73
2021/05/21 01:17:25;;;;;;;0.15;0.15;;;7.50;99.90;;;;;;5110312;28;20163;-73
2021/05/21 01:19:52;;;;;;;0.10;0.10;;;7.50;99.90;;;;;;5110777;28;20156;-73
2021/05/21 01:22:19;;;;;;;0.30;0.30;;;7.40;99.90;;;;;;5110758;28;20159;-73
2021/05/21 01:24:45;;;;;;;0.10;0.10;;;7.50;99.90;;;;;;5110437;28;20191;-72
2021/05/21 01:27:12;;;;;;;0.10;0.10;;;7.60;99.90;;;;;;5092246;28;20160;-72
2021/05/21 01:29:39;;;;;;;0.00;0.00;;;7.60;99.90;;;;;;5110414;28;20155;-73
2021/05/21 01:32:08;;;;;;;0.10;0.10;;;7.70;99.90;;;;;;5109188;28;20179;-71
2021/05/21 01:34:35;;;;;;;0.17;0.17;;;7.60;99.90;;;;;;5090958;28;20202;-73
2021/05/21 01:37:02;;;;;;;0.20;0.20;;;7.60;99.90;;;;;;5109580;28;20162;-73
2021/05/21 01:39:34;;;;;;;0.00;0.00;;;7.70;99.90;;;;;;5110218;28;20205;-73
2021/05/21 01:42:01;;;;;;;0.10;0.10;;;7.60;99.90;;;;;;5109538;28;20219;-72
2021/05/21 01:44:28;;;;;;;0.20;0.20;;;7.70;99.90;;;;;;5110081;28;20677;-73
2021/05/21 01:46:54;;;;;;;0.08;0.08;;;7.70;99.90;;;;;;5110431;28;20171;-72
2021/05/21 01:49:20;;;;;;;0.38;0.38;;;7.80;99.90;;;;;;5130515;28;20165;-73
2021/05/21 01:51:58;;;;;;;0.10;0.10;;;7.70;99.90;;;;;;5130521;28;20163;-73
2021/05/21 01:54:25;;;;;;;0.13;0.13;;;7.60;99.90;;;;;;5130361;28;20249;-73
2021/05/21 01:56:52;;;;;;;0.00;0.00;;;7.50;99.90;;;;;;5111725;28;20203;-73
2021/05/21 01:59:25;;;;;;;0.30;0.30;;;7.40;99.90;;;;;;5112052;28;20221;-72
2021/05/21 02:01:52;;;;;;;0.35;0.35;;;7.50;99.90;;;;;;5130218;28;20507;-73
2021/05/21 02:04:34;;;;;;;0.22;0.22;;;7.50;99.90;;;;;;5130302;28;20242;-73
2021/05/21 02:07:00;;;;;;;0.10;0.10;;;7.40;99.90;;;;;;5111857;28;20177;-73
2021/05/21 02:09:27;;;;;;;0.10;0.10;;;7.30;99.90;;;;;;5111827;28;20190;-72
2021/05/21 02:11:54;;;;;;;0.08;0.08;;;7.20;99.90;;;;;;5130169;28;20159;-72
2021/05/21 02:14:19;;;;;;;0.43;0.43;;;7.30;99.90;;;;;;5129934;28;20187;-73
2021/05/21 02:16:46;;;;;;;0.32;0.32;;;7.30;99.90;;;;;;5130136;28;20226;-71
2021/05/21 02:19:12;;;;;;;0.08;0.08;;;7.20;99.90;;;;;;5111670;28;20263;-73
2021/05/21 02:21:40;;;;;;;0.10;0.10;;;7.30;99.90;;;;;;5129893;28;20163;-73
2021/05/21 02:24:07;;;;;;;0.20;0.20;;;7.30;99.90;;;;;;5129777;28;20337;-72
2021/05/21 02:26:34;;;;;;;0.10;0.10;;;7.10;99.90;;;;;;5111583;28;20200;-71
2021/05/21 02:29:00;;;;;;;0.15;0.15;;;6.90;99.90;;;;;;5129881;28;20506;-71
2021/05/21 02:31:26;;;;;;;0.10;0.10;;;6.70;99.90;;;;;;5126518;28;20360;-73
2021/05/21 02:33:51;;;;;;;0.10;0.10;;;6.80;99.90;;;;;;5090642;28;20198;-72
2021/05/21 02:36:17;;;;;;;0.10;0.10;;;6.80;99.90;;;;;;5108498;28;20166;-72
2021/05/21 02:38:43;;;;;;;0.73;0.73;;;7.00;99.90;;;;;;5109318;28;20194;-73
2021/05/21 02:41:09;;;;;;;0.10;0.10;;;7.10;99.90;;;;;;5108982;28;20215;-72
2021/05/21 02:43:35;;;;;;;0.10;0.10;;;7.20;99.90;;;;;;5109027;28;20175;-72
2021/05/21 02:46:00;;;;;;;0.70;0.70;;;7.30;99.90;;;;;;5109199;28;20782;-73
2021/05/21 02:48:26;;;;;;;3.65;0.50;;;7.30;99.90;;;;;;5108727;28;20171;-72
2021/05/21 02:50:52;;;;;;;0.10;0.10;;;7.30;99.90;;;;;;5109253;28;20159;-73
2021/05/21 02:53:18;;;;;;;2.08;0.55;;;7.30;99.90;;;;;;5109124;28;20167;-72
2021/05/21 02:55:44;;;;;;;0.10;0.10;;;7.30;99.90;;;;;;5090675;28;20218;-72
2021/05/21 02:58:10;;;;;;;16.40;0.68;;;7.20;99.90;;;;;;5108909;28;20189;-72
2021/05/21 03:00:36;;;;;;;0.10;0.10;;;7.10;99.90;;;;;;5109182;28;20211;-71
2021/05/21 03:03:01;;;;;;;0.20;0.20;;;6.90;99.90;;;;;;5109084;28;20208;-73
2021/05/21 03:05:27;;;;;;;0.10;0.10;;;6.70;99.90;;;;;;5108952;28;20292;-71
2021/05/21 03:07:55;;;;;;;0.00;0.00;;;6.50;99.90;;;;;;5109043;28;20159;-73
2021/05/21 03:10:22;;;;;;;0.03;0.03;;;6.40;99.90;;;;;;5108823;28;20160;-72
2021/05/21 03:12:48;;;;;;;0.20;0.20;;;6.30;99.90;;;;;;5108996;28;20155;-73
2021/05/21 03:15:15;;;;;;;0.00;0.00;;;6.20;99.90;;;;;;5108866;28;20188;-73
2021/05/21 03:17:40;;;;;;;0.10;0.10;;;6.30;99.90;;;;;;5108934;28;20194;-73
2021/05/21 03:20:08;;;;;;;0.20;0.20;;;6.40;99.90;;;;;;5090790;28;20167;-73
2021/05/21 03:22:33;;;;;;;0.15;0.15;;;6.30;99.90;;;;;;5090792;28;20624;-72
2021/05/21 03:25:03;;;;;;;0.63;0.63;;;6.30;99.90;;;;;;5108886;28;20282;-73
2021/05/21 03:27:30;;;;;;;0.28;0.28;;;6.30;99.90;;;;;;5108817;28;20163;-73
2021/05/21 03:29:57;;;;;;;0.10;0.10;;;6.20;99.90;;;;;;5090733;28;20231;-74
2021/05/21 03:32:23;;;;;;;0.20;0.20;;;6.10;99.90;;;;;;5108961;28;20628;-73
2021/05/21 03:34:49;;;;;;;0.10;0.10;;;6.10;99.90;;;;;;5094722;28;20207;-73
2021/05/21 03:37:15;;;;;;;0.13;0.13;;;6.20;99.90;;;;;;5100617;28;20202;-73
2021/05/21 03:39:41;;;;;;;0.00;0.00;;;6.20;99.90;;;;;;5112160;28;20156;-73
2021/05/21 03:42:07;;;;;;;0.03;0.03;;;6.20;99.90;;;;;;5100794;28;20279;-73
2021/05/21 03:44:33;;;;;;;0.32;0.32;;;6.30;99.90;;;;;;5073764;28;20203;-72
2021/05/21 03:47:02;;;;;;;0.10;0.10;;;6.30;99.90;;;;;;5091539;28;20164;-72
2021/05/21 03:49:31;;;;;;;0.10;0.10;;;6.60;99.90;;;;;;5112204;28;20152;-74
2021/05/21 03:52:01;;;;;;;0.10;0.10;;;6.70;99.90;;;;;;5112282;28;20264;-73
2021/05/21 03:54:27;;;;;;;0.10;0.10;;;6.80;99.90;;;;;;5093231;28;20195;-73
2021/05/21 03:56:53;;;;;;;0.30;0.30;;;7.20;99.90;;;;;;5112080;28;20151;-73
2021/05/21 03:59:20;;;;;;;0.10;0.10;;;7.50;99.90;;;;;;5111834;28;20704;-71
2021/05/21 04:01:46;;;;;;;0.20;0.20;;;8.00;99.90;;;;;;5093717;28;20197;-73
2021/05/21 04:04:12;;;;;;;0.10;0.10;;;8.50;99.90;;;;;;5111869;28;20215;-73
2021/05/21 04:06:39;;;;;;;0.40;0.40;;;9.00;99.90;;;;;;5111927;28;20178;-73
2021/05/21 04:09:06;;;;;;;0.10;0.10;;;9.30;99.90;;;;;;5111784;28;20155;-73
2021/05/21 04:11:34;;;;;;;0.35;0.35;;;9.50;99.90;;;;;;5111575;28;20184;-73
2021/05/21 04:14:01;;;;;;;0.10;0.10;;;9.50;99.90;;;;;;5111597;28;20195;-73
2021/05/21 04:16:27;;;;;;;0.10;0.10;;;9.60;99.90;;;;;;5111706;28;20174;-72
2021/05/21 04:18:53;;;;;;;0.00;0.00;;;10.20;99.90;;;;;;5111516;28;20187;-72
2021/05/21 04:21:21;;;;;;;0.00;0.00;;;10.30;99.90;;;;;;5093332;28;20175;-72
2021/05/21 04:23:47;;;;;;;0.25;0.25;;;10.20;99.90;;;;;;5093444;28;20195;-72
2021/05/21 04:26:15;;;;;;;0.10;0.10;;;10.20;99.90;;;;;;5093166;28;20655;-72
2021/05/21 04:28:41;;;;;;;0.10;0.10;;;9.70;99.90;;;;;;5111181;28;20159;-74
2021/05/21 04:31:07;;;;;;;0.30;0.30;;;9.40;99.90;;;;;;5111059;28;20163;-73
2021/05/21 04:33:34;;;;;;;0.10;0.10;;;9.60;99.90;;;;;;5111223;28;20163;-72
2021/05/21 04:36:00;;;;;;;0.80;0.80;;;10.00;99.90;;;;;;5110877;28;20163;-73
2021/05/21 04:38:27;;;;;;;0.00;0.00;;;10.60;99.90;;;;;;5110883;28;20191;-73
2021/05/21 04:40:53;;;;;;;0.63;0.63;;;10.90;99.90;;;;;;5111027;28;20156;-72
2021/05/21 04:43:26;;;;;;;0.10;0.10;;;11.40;99.90;;;;;;5111163;28;20188;-72
2021/05/21 04:45:56;;;;;;;0.10;0.10;;;12.10;99.90;;;;;;5091378;28;20159;-72
2021/05/21 04:48:23;;;;;;;0.20;0.15;;;12.90;99.90;;;;;;5111206;28;20171;-73
2021/05/21 04:50:50;;;;;;;3.40;1.67;;;13.70;99.90;;;;;;5111024;28;20176;-73
2021/05/21 04:53:17;;;;;;;1.95;0.70;;;14.00;99.90;;;;;;5109689;28;20151;-73
2021/05/21 04:55:43;;;;;;;0.00;0.00;;;14.20;99.90;;;;;;5110994;28;20199;-73
2021/05/21 04:58:09;;;;;;;0.65;0.65;;;13.90;99.90;;;;;;5110829;28;20191;-73
2021/05/21 05:00:36;;;;;;;0.10;0.10;;;13.70;99.90;;;;;;5110737;28;20247;-73
2021/05/21 05:03:06;;;;;;;0.28;0.28;;;14.00;99.90;;;;;;5110443;28;20151;-72
2021/05/21 05:05:33;;;;;;;0.10;0.10;;;14.30;99.90;;;;;;5110265;28;20191;-72
2021/05/21 05:07:58;;;;;;;0.10;0.10;;;14.50;99.90;;;;;;5110617;28;20490;-73
2021/05/21 05:10:25;;;;;;;0.55;0.55;;;14.60;99.90;;;;;;5110478;28;20197;-72
2021/05/21 05:12:52;;;;;;;0.15;0.15;;;14.50;99.90;;;;;;5110276;28;20179;-73
2021/05/21 05:15:19;;;;;;;0.10;0.10;;;14.50;99.90;;;;;;5091696;28;20572;-71
2021/05/21 05:17:51;;;;;;;0.52;0.50;;;14.60;99.90;;;;;;5110143;28;20193;-72
2021/05/21 05:20:20;;;;;;;0.00;0.00;;;14.70;99.90;;;;;;5110088;28;20177;-74
2021/05/21 05:22:47;;;;;;;0.73;0.73;;;14.80;99.90;;;;;;5110243;28;20167;-72
2021/05/21 05:25:14;;;;;;;0.00;0.00;;;15.70;99.90;;;;;;5091395;28;20278;-72
2021/05/21 05:27:41;;;;;;;0.30;0.30;;;15.40;99.90;;;;;;5091632;28;20255;-73
2021/05/21 05:30:07;;;;;;;0.10;0.10;;;15.40;99.90;;;;;;5092058;28;20171;-73
2021/05/21 05:32:33;;;;;;;0.30;0.30;;;15.50;99.90;;;;;;5091528;28;20182;-72
2021/05/21 05:34:59;;;;;;;0.30;0.30;;;16.50;99.90;;;;;;5110175;28;20247;-72
2021/05/21 05:37:25;;;;;;;0.93;0.85;;;18.00;99.90;;;;;;5084962;28;20179;-72
2021/05/21 05:39:51;;;;;;;1.10;1.00;;;18.80;99.90;;;;;;5109918;28;20163;-72
2021/05/21 05:42:17;;;;;;;0.45;0.45;;;19.60;99.90;;;;;;5109481;28;20238;-72
2021/05/21 05:44:43;;;;;;;0.10;0.10;;;19.00;99.90;;;;;;5109142;28;20183;-72
2021/05/21 05:47:09;;;;;;;0.10;0.10;;;19.00;99.90;;;;;;5109447;28;20239;-72
2021/05/21 05:49:34;;;;;;;0.32;0.32;;;18.70;99.90;;;;;;5109903;28;20209;-72
2021/05/21 05:52:00;;;;;;;3.95;0.30;;;18.80;99.90;;;;;;5091346;28;20213;-72
2021/05/21 05:54:27;;;;;;;0.75;0.70;;;18.60;99.90;;;;;;5109592;28;20634;-72
2021/05/21 05:56:54;;;;;;;0.57;0.57;;;19.20;99.90;;;;;;5108143;28;20171;-72
2021/05/21 05:59:20;;;;;;;0.30;0.30;;;19.50;99.90;;;;;;5109374;28;20257;-72
2021/05/21 06:01:46;;;;;;;0.05;0.05;;;19.40;99.90;;;;;;5109550;28;20151;-71
2021/05/21 06:04:12;;;;;;;0.30;0.30;;;19.70;99.90;;;;;;5091328;28;20721;-72
2021/05/21 06:06:38;;;;;;;0.75;0.75;;;20.00;99.90;;;;;;5109276;28;20159;-72
2021/05/21 06:09:06;;;;;;;0.15;0.13;;;19.70;99.90;;;;;;5091389;28;20175;-73
2021/05/21 06:11:33;;;;;;;0.00;0.00;;;19.60;99.90;;;;;;5109104;28;20161;-72
2021/05/21 06:13:58;;;;;;;0.25;0.25;;;21.10;99.90;;;;;;5109008;28;20251;-72
2021/05/21 06:16:24;;;;;;;1.27;0.15;;;21.60;99.90;;;;;;5091019;28;20196;-72
2021/05/21 06:18:50;;;;;;;1.23;0.90;;;21.90;99.90;;;;;;5109212;28;20216;-72
2021/05/21 06:21:16;;;;;;;0.32;0.32;;;22.70;99.90;;;;;;5106152;28;20231;-72
2021/05/21 06:23:46;;;;;;;0.15;0.15;;;21.10;99.90;;;;;;5098079;28;20166;-72
2021/05/21 06:28:54;;;;;;;0.05;0.05;;;22.50;99.90;;;;;;5099643;28;20159;-72
2021/05/21 06:31:21;;;;;;;0.47;0.40;;;22.30;99.90;;;;;;5073571;28;20181;-72
2021/05/21 06:33:48;;;;;;;0.30;0.30;;;21.80;99.90;;;;;;5096667;28;20191;-72
2021/05/21 06:36:14;;;;;;;0.08;0.08;;;20.90;99.90;;;;;;5070095;28;20167;-72
2021/05/21 06:38:41;;;;;;;0.30;0.30;;;20.90;99.90;;;;;;5081826;28;20191;-72
2021/05/21 06:41:08;;;;;;;0.30;0.30;;;20.50;99.90;;;;;;5098167;28;20289;-72
2021/05/21 06:43:35;;;;;;;0.17;0.10;;;20.60;99.90;;;;;;5099352;28;20162;-72
2021/05/21 06:46:02;;;;;;;0.45;0.40;;;19.50;99.90;;;;;;5097884;28;20160;-72
2021/05/21 06:48:35;;;;;;;0.43;0.43;;;19.20;99.90;;;;;;5076895;28;20202;-72
2021/05/21 06:51:04;;;;;;;0.00;0.00;;;20.60;99.90;;;;;;5096659;28;20170;-71
2021/05/21 06:53:30;;;;;;;0.10;0.10;;;20.90;99.90;;;;;;5080345;28;20171;-72
2021/05/21 06:55:57;;;;;;;0.00;0.00;;;21.00;99.90;;;;;;5097368;28;20175;-71
2021/05/21 06:58:24;;;;;;;0.10;0.10;;;21.80;99.90;;;;;;5087557;28;20198;-71
2021/05/21 07:00:51;;;;;;;1.27;1.00;;;21.90;99.90;;;;;;5090600;28;20174;-69
2021/05/21 07:03:18;;;;;;;0.85;0.25;;;21.70;99.90;;;;;;5108716;28;20155;-71
2021/05/21 07:05:44;;;;;;;0.95;0.77;;;21.20;99.90;;;;;;5108607;28;20183;-71
2021/05/21 07:08:11;;;;;;;1.17;0.35;;;21.80;99.90;;;;;;5109413;28;20165;-70
2021/05/21 07:10:38;;;;;;;0.17;0.17;;;20.60;99.90;;;;;;5094460;28;20173;-70
2021/05/21 07:13:14;;;;;;;0.47;0.47;;;19.50;99.90;;;;;;5094416;28;20167;-71
2021/05/21 07:15:41;;;;;;;0.20;0.20;;;19.70;99.90;;;;;;5112616;28;20187;-70
2021/05/21 07:18:07;;;;;;;0.55;0.55;;;20.50;99.90;;;;;;5112540;28;20187;-71
2021/05/21 07:20:34;;;;;;;1.95;0.57;;;21.20;99.90;;;;;;5094572;28;20163;-71
2021/05/21 07:23:00;;;;;;;0.22;0.22;;;22.10;99.90;;;;;;5094125;28;20194;-71
2021/05/21 07:25:26;;;;;;;0.05;0.05;;;21.80;99.90;;;;;;5112508;28;20189;-72
2021/05/21 07:27:53;;;;;;;0.10;0.10;;;22.90;99.90;;;;;;5111514;28;20159;-70
2021/05/21 07:30:19;;;;;;;0.10;0.10;;;22.00;99.90;;;;;;5109993;28;20174;-71
2021/05/21 07:32:46;;;;;;;0.10;0.10;;;21.30;99.90;;;;;;5093016;28;20182;-72
2021/05/21 07:35:12;;;;;;;0.75;0.45;;;21.30;99.90;;;;;;5103169;28;20195;-71
2021/05/21 07:37:38;;;;;;;0.00;0.00;;;20.60;99.90;;;;;;5105319;28;20199;-71
2021/05/21 07:40:07;;;;;;;0.30;0.13;;;20.50;99.90;;;;;;5108436;28;20198;-71
2021/05/21 07:42:37;;;;;;;0.55;0.55;;;21.30;99.90;;;;;;5108119;28;20229;-71
2021/05/21 07:45:06;;;;;;;0.10;0.10;;;20.90;99.90;;;;;;5104466;28;20194;-71
2021/05/21 07:47:31;;;;;;;1.60;0.30;;;20.00;99.90;;;;;;5093506;28;20171;-71
2021/05/21 07:49:57;;;;;;;0.20;0.20;;;19.20;99.90;;;;;;5111696;28;20171;-71
2021/05/21 07:52:23;;;;;;;0.57;0.45;;;19.00;99.90;;;;;;5092827;28;20254;-71
2021/05/21 07:54:49;;;;;;;0.13;0.13;;;18.80;99.90;;;;;;5111996;28;20191;-71
2021/05/21 07:57:15;;;;;;;0.35;0.30;;;18.40;99.90;;;;;;5111828;28;20190;-71
2021/05/21 07:59:41;;;;;;;0.00;0.00;;;18.90;99.90;;;;;;5092403;28;20203;-71
2021/05/21 08:02:07;;;;;;;0.20;0.20;;;20.40;99.90;;;;;;5107730;28;20179;-70
2021/05/21 08:04:33;;;;;;;3.15;1.02;;;21.20;99.90;;;;;;5085297;28;20206;-71
2021/05/21 08:06:59;;;;;;;0.10;0.10;;;21.00;99.90;;;;;;5110357;28;20194;-71
2021/05/21 08:09:25;;;;;;;0.17;0.17;;;20.50;99.90;;;;;;5111064;28;20159;-71
2021/05/21 08:11:51;;;;;;;0.03;0.03;;;20.20;99.90;;;;;;5093367;28;20696;-71
2021/05/21 08:14:17;;;;;;;0.30;0.30;;;19.50;99.90;;;;;;5092504;28;20258;-72
2021/05/21 08:16:43;;;;;;;0.10;0.10;;;19.70;99.90;;;;;;5106412;28;20209;-72
2021/05/21 08:19:09;;;;;;;0.00;0.00;;;19.30;99.90;;;;;;5108136;28;20215;-71
2021/05/21 08:21:35;;;;;;;1.45;0.38;;;20.00;99.90;;;;;;5088558;28;20179;-72
2021/05/21 08:24:01;;;;;;;1.77;0.75;;;20.50;99.90;;;;;;5111163;28;20197;-73
2021/05/21 08:26:27;;;;;;;0.10;0.10;;;20.80;99.90;;;;;;5090755;28;20206;-71
2021/05/21 08:28:55;;;;;;;1.52;0.63;;;21.40;99.90;;;;;;5109458;28;20202;-72
2021/05/21 08:31:22;;;;;;;0.57;0.40;;;21.80;99.90;;;;;;5111106;28;20171;-71
2021/05/21 08:33:48;;;;;;;1.75;0.50;;;21.90;99.90;;;;;;5110846;28;20163;-71
2021/05/21 08:36:15;;;;;;;0.05;0.05;;;22.60;99.90;;;;;;5110726;28;20155;-72
2021/05/21 08:38:45;;;;;;;0.20;0.20;;;23.80;99.90;;;;;;5109230;28;20202;-72
2021/05/21 08:41:18;;;;;;;0.05;0.05;;;22.60;99.90;;;;;;5090747;28;20207;-72
2021/05/21 08:43:50;;;;;;;0.08;0.08;;;23.30;99.90;;;;;;5090712;28;20164;-71
2021/05/21 08:46:18;;;;;;;0.25;0.25;;;24.00;99.90;;;;;;5072598;28;20163;-72
2021/05/21 08:48:44;;;;;;;0.40;0.22;;;24.40;99.90;;;;;;5105841;28;20195;-71
2021/05/21 08:51:11;;;;;;;0.98;0.63;;;25.60;99.90;;;;;;5111026;28;20163;-72
2021/05/21 08:53:38;;;;;;;0.17;0.17;;;26.80;99.90;;;;;;5092516;28;20174;-71
2021/05/21 08:56:06;;;;;;;0.15;0.15;;;25.90;99.90;;;;;;5092624;28;20171;-72
2021/05/21 08:58:33;;;;;;;0.20;0.20;;;25.00;99.90;;;;;;5110333;28;20198;-71
2021/05/21 09:00:58;;;;;;;0.68;0.68;;;23.90;99.90;;;;;;5110639;28;20166;-71
2021/05/21 09:03:30;;;;;;;0.50;0.50;;;23.30;99.90;;;;;;5091366;28;20167;-72
2021/05/21 09:08:51;;;;;;;0.10;0.10;;;25.70;99.90;;;;;;5110301;28;20194;-72
2021/05/21 09:11:27;;;;;;;0.00;0.00;;;25.60;99.90;;;;;;5110447;28;20167;-71
2021/05/21 09:13:57;;;;;;;0.10;0.10;;;23.70;99.90;;;;;;5110427;28;20634;-72
2021/05/21 09:16:25;;;;;;;0.00;0.00;;;24.30;99.90;;;;;;5110541;28;20163;-72
2021/05/21 09:19:02;;;;;;;0.50;0.50;;;23.80;99.90;;;;;;5110142;28;20230;-71
2021/05/21 09:21:54;;;;;;;0.10;0.10;;;23.90;99.90;;;;;;5110319;28;20186;-71
2021/05/21 09:24:21;;;;;;;0.00;0.00;;;24.50;99.90;;;;;;5100572;28;20202;-71
2021/05/21 09:26:50;;;;;;;0.13;0.13;;;24.20;99.90;;;;;;5090624;28;20246;-71
2021/05/21 09:29:32;;;;;;;0.73;0.30;;;23.90;99.90;;;;;;5108700;28;20159;-72
2021/05/21 09:31:58;;;;;;;0.00;0.00;;;23.70;99.90;;;;;;5109391;28;20194;-72
2021/05/21 09:34:34;;;;;;;0.08;0.08;;;23.70;99.90;;;;;;5109842;28;20187;-72
2021/05/21 09:37:01;;;;;;;1.48;0.77;;;23.40;99.90;;;;;;5109467;28;20504;-71
2021/05/21 09:39:27;;;;;;;0.57;0.38;;;23.30;99.90;;;;;;5109924;28;20207;-72
2021/05/21 09:41:53;;;;;;;0.35;0.35;;;23.50;99.90;;;;;;5109754;28;20556;-73
2021/05/21 09:44:21;;;;;;;0.05;0.05;;;24.40;99.90;;;;;;5109959;28;20190;-72
2021/05/21 09:46:50;;;;;;;0.00;0.00;;;24.30;99.90;;;;;;5109835;28;20592;-72
2021/05/21 09:49:29;;;;;;;0.10;0.10;;;23.80;99.90;;;;;;5109397;28;20170;-72
2021/05/21 09:51:57;;;;;;;0.20;0.20;;;24.00;99.90;;;;;;5109900;28;20146;-72
2021/05/21 09:54:25;;;;;;;0.80;0.80;;;24.00;99.90;;;;;;5109421;28;20197;-71
2021/05/21 09:57:05;;;;;;;0.15;0.15;;;24.50;99.90;;;;;;5091591;28;20239;-72
2021/05/21 09:59:57;;;;;;;0.10;0.10;;;25.30;99.70;;;;;;5109474;28;20186;-72
2021/05/21 10:02:31;;;;;;;0.10;0.10;;;26.00;99.90;;;;;;5086262;28;20190;-72
2021/05/21 10:05:02;;;;;;;0.10;0.10;;;24.80;99.90;;;;;;5091489;28;20201;-72
2021/05/21 10:07:28;;;;;;;0.52;0.52;;;23.90;99.90;;;;;;5109278;28;20151;-72
2021/05/21 10:09:54;;;;;;;0.10;0.10;;;24.00;99.90;;;;;;5109114;28;20225;-72
2021/05/21 10:12:20;;;;;;;0.20;0.20;;;24.80;99.90;;;;;;5109371;28;20210;-72
2021/05/21 10:14:50;;;;;;;0.20;0.20;;;25.10;99.90;;;;;;5109348;28;20190;-72
2021/05/21 10:17:21;;;;;;;2.92;0.35;;;25.20;99.90;;;;;;5109321;28;20162;-71
2021/05/21 10:19:48;;;;;;;0.17;0.15;;;26.00;99.90;;;;;;5109366;28;20269;-72
2021/05/21 10:22:21;;;;;;;0.20;0.20;;;26.20;99.90;;;;;;5109379;28;20179;-72
2021/05/21 10:24:49;;;;;;;0.03;0.03;;;26.30;99.50;;;;;;5087549;28;20195;-72
2021/05/21 10:27:27;;;;;;;0.10;0.10;;;25.90;99.50;;;;;;5088973;28;20241;-73
2021/05/21 10:29:59;;;;;;;2.08;0.20;;;24.70;99.90;;;;;;5088584;28;20151;-72
2021/05/21 10:32:30;;;;;;;0.22;0.10;;;25.30;99.90;;;;;;5088935;28;20156;-72
2021/05/21 10:35:12;;;;;;;0.10;0.10;;;24.90;99.20;;;;;;5070181;28;20178;-72
2021/05/21 10:37:39;;;;;;;0.20;0.20;;;23.40;99.90;;;;;;5069827;28;20167;-71
2021/05/21 10:40:25;;;;;;;0.38;0.10;;;23.20;99.90;;;;;;5088665;28;20147;-72
2021/05/21 10:42:52;;;;;;;0.13;0.13;;;23.20;99.90;;;;;;5072062;28;20219;-71
2021/05/21 10:45:21;;;;;;;0.10;0.10;;;23.60;99.90;;;;;;5092970;28;20167;-71
2021/05/21 10:47:57;;;;;;;0.35;0.35;;;24.40;99.90;;;;;;5100695;28;20166;-71
2021/05/21 10:50:31;;;;;;;0.30;0.30;;;24.40;99.90;;;;;;5094922;28;20166;-71
2021/05/21 10:53:08;;;;;;;0.10;0.10;;;24.30;98.80;;;;;;5094809;28;20198;-71
2021/05/21 10:55:53;;;;;;;0.80;0.80;;;24.50;99.20;;;;;;5112923;28;20154;-72
2021/05/21 10:58:29;;;;;;;0.15;0.15;;;24.80;99.90;;;;;;5112856;28;20188;-71
2021/05/21 11:01:08;;;;;;;0.25;0.13;;;24.50;98.40;;;;;;5094551;28;20158;-71
2021/05/21 11:03:58;;;;;;;0.05;0.05;;;24.00;99.90;;;;;;5112966;28;20182;-71
2021/05/21 11:06:26;;;;;;;0.73;0.47;;;24.20;99.10;;;;;;5112586;28;20233;-71
2021/05/21 11:09:15;;;;;;;0.32;0.32;;;24.70;99.10;;;;;;5094320;28;20167;-71
2021/05/21 11:12:00;;;;;;;0.10;0.10;;;26.50;99.50;;;;;;5112669;28;20170;-71
2021/05/21 11:14:30;;;;;;;0.10;0.10;;;26.40;97.20;;;;;;5112760;28;20193;-71
2021/05/21 11:17:21;;;;;;;0.15;0.15;;;25.30;97.70;;;;;;5094331;28;20175;-71
2021/05/21 11:19:51;;;;;;;0.00;0.00;;;24.80;99.10;;;;;;5100034;28;20237;-70
2021/05/21 11:22:23;;;;;;;0.00;0.00;;;24.90;99.30;;;;;;5112693;28;20584;-71
2021/05/21 11:24:53;;;;;;;0.43;0.43;;;25.20;99.90;;;;;;5112252;28;20194;-71
2021/05/21 11:27:20;;;;;;;0.35;0.30;;;24.70;98.60;;;;;;5112554;28;20242;-71
2021/05/21 11:29:52;;;;;;;0.10;0.10;;;23.80;98.90;;;;;;5112655;28;20196;-71
2021/05/21 11:32:20;;;;;;;0.85;0.57;;;23.80;99.30;;;;;;5094004;28;20201;-70
2021/05/21 11:34:47;;;;;;;0.00;0.00;;;24.00;99.90;;;;;;5091467;28;20198;-70
2021/05/21 11:37:21;;;;;;;0.17;0.17;;;24.20;99.40;;;;;;5111615;28;20179;-70
2021/05/21 11:39:47;;;;;;;0.15;0.15;;;24.00;98.30;;;;;;5093889;28;20612;-70
2021/05/21 11:42:13;;;;;;;2.90;0.22;;;23.40;97.50;;;;;;5111912;28;20218;-70
2021/05/21 11:44:39;;;;;;;0.20;0.20;;;23.60;98.00;;;;;;5111974;28;20190;-70
2021/05/21 11:47:07;;;;;;;0.10;0.10;;;23.80;98.00;;;;;;5092996;28;20221;-71
2021/05/21 11:49:34;;;;;;;0.00;0.00;;;23.60;96.90;;;;;;5111798;28;20155;-70
2021/05/21 11:52:05;;;;;;;0.05;0.05;;;23.80;97.50;;;;;;5093829;28;20324;-71
2021/05/21 11:54:32;;;;;;;0.05;0.05;;;23.30;97.10;;;;;;5110642;28;20190;-70
2021/05/21 11:56:59;;;;;;;0.20;0.20;;;22.90;99.40;;;;;;5093477;28;20206;-72
2021/05/21 11:59:26;;;;;;;1.75;0.57;;;23.10;97.40;;;;;;5111774;28;20208;-72
2021/05/21 12:01:57;;;;;;;2.20;0.45;;;23.10;97.90;;;;;;5107584;28;20158;-74
2021/05/21 12:04:29;;;;;;;0.30;0.25;;;23.00;98.30;;;;;;5105519;28;20190;-72
2021/05/21 12:06:55;;;;;;;0.20;0.20;;;23.30;98.30;;;;;;5111815;28;20587;-70
2021/05/21 12:09:23;;;;;;;0.00;0.00;;;23.80;97.70;;;;;;5082532;28;20194;-70
2021/05/21 12:11:50;;;;;;;0.10;0.10;;;23.90;97.50;;;;;;5093311;28;20167;-71
2021/05/21 12:14:18;;;;;;;0.10;0.10;;;23.90;96.20;;;;;;5099301;28;20202;-70
2021/05/21 12:16:46;;;;;;;0.40;0.40;;;23.40;96.70;;;;;;5093436;28;20174;-71
2021/05/21 12:19:14;;;;;;;0.10;0.10;;;23.00;97.10;;;;;;5111628;28;20175;-71
2021/05/21 12:21:44;;;;;;;1.20;0.38;;;22.70;96.80;;;;;;5111427;28;20227;-70
2021/05/21 12:24:12;;;;;;;0.20;0.20;;;22.30;97.40;;;;;;5092806;28;20215;-71
2021/05/21 12:26:40;;;;;;;0.20;0.20;;;22.40;98.30;;;;;;5094128;28;20182;-71
2021/05/21 12:29:08;;;;;;;0.10;0.10;;;22.50;98.70;;;;;;5089048;28;20413;-70
2021/05/21 12:31:53;;;;;;;0.10;0.10;;;22.80;98.20;;;;;;5094317;28;20163;-71
2021/05/21 12:34:20;;;;;;;0.00;0.00;;;23.30;98.30;;;;;;5095997;28;20217;-70
2021/05/21 12:37:07;;;;;;;0.32;0.30;;;23.60;98.20;;;;;;5090016;28;20159;-71
2021/05/21 12:39:33;;;;;;;0.03;0.03;;;23.90;97.60;;;;;;5090637;28;20202;-70
2021/05/21 12:42:00;;;;;;;0.55;0.45;;;24.10;98.20;;;;;;5090316;28;20223;-71
2021/05/21 12:44:26;;;;;;;0.00;0.00;;;24.20;96.30;;;;;;5089518;28;20191;-70
2021/05/21 12:46:58;;;;;;;0.00;0.00;;;23.80;96.50;;;;;;5090765;28;20645;-71
2021/05/21 12:49:30;;;;;;;0.15;0.13;;;23.60;96.20;;;;;;5131302;28;20185;-72
2021/05/21 12:51:58;;;;;;;0.10;0.10;;;22.90;95.40;;;;;;5112649;28;20197;-70
2021/05/21 12:54:30;;;;;;;0.30;0.20;;;22.60;95.50;;;;;;5112634;28;20171;-72
2021/05/21 12:57:21;;;;;;;0.28;0.28;;;22.90;96.40;;;;;;5112488;28;20170;-72
2021/05/21 12:59:53;;;;;;;0.00;0.00;;;22.80;95.90;;;;;;5130268;28;20216;-72
2021/05/21 13:02:28;;;;;;;0.10;0.10;;;23.10;96.70;;;;;;5112162;28;20239;-71